createdAt,value
2023-01-21T00:00:33.052Z,4.78
2023-01-21T00:03:35.287Z,4.77
2023-01-21T00:06:37.932Z,4.97
2023-01-21T00:13:00.518Z,4.80
2023-01-21T00:16:03.220Z,5.72
2023-01-21T00:19:05.159Z,5.30
2023-01-21T00:22:07.741Z,5.93
2023-01-21T00:25:10.740Z,4.75
2023-01-21T00:28:12.732Z,4.80
2023-01-21T00:31:15.362Z,4.85
2023-01-21T00:34:17.527Z,5.27
2023-01-21T00:37:20.105Z,4.47
2023-01-21T00:40:22.800Z,4.45
2023-01-21T00:43:24.198Z,5.18
2023-01-21T00:46:26.929Z,5.38
2023-01-21T00:49:29.073Z,4.83
2023-01-21T00:52:31.758Z,4.47
2023-01-21T00:55:34.845Z,5.18
2023-01-21T00:58:36.368Z,4.80
2023-01-21T01:01:39.308Z,5.00
2023-01-21T01:04:41.576Z,4.83
2023-01-21T01:07:46.526Z,4.87
2023-01-21T01:10:49.133Z,5.25
2023-01-21T01:13:50.426Z,4.80
2023-01-21T01:16:52.968Z,4.88
2023-01-21T01:19:55.097Z,4.93
2023-01-21T01:22:57.659Z,4.20
2023-01-21T01:26:02.035Z,4.93
2023-01-21T01:29:03.774Z,4.15
2023-01-21T01:32:07.047Z,4.45
2023-01-21T01:35:09.819Z,5.00
2023-01-21T01:38:14.488Z,4.87
2023-01-21T01:41:17.572Z,4.45
2023-01-21T01:45:00.007Z,5.40
2023-01-21T01:48:06.734Z,4.32
2023-01-21T01:51:10.401Z,5.00
2023-01-21T01:54:16.151Z,4.20
2023-01-21T01:57:21.473Z,4.20
2023-01-21T02:00:24.510Z,4.05
2023-01-21T02:03:45.496Z,4.03
2023-01-21T02:06:48.574Z,3.97
2023-01-21T02:09:53.438Z,4.28
2023-01-21T02:12:56.004Z,4.35
2023-01-21T02:19:52.157Z,3.55
2023-01-21T02:23:02.799Z,3.73
2023-01-21T02:26:31.167Z,3.78
2023-01-21T02:30:09.243Z,3.92
2023-01-21T02:33:39.195Z,4.28
2023-01-21T02:37:07.748Z,3.40
2023-01-21T02:40:21.193Z,3.77
2023-01-21T02:43:35.475Z,3.80
2023-01-21T02:46:42.224Z,3.40
2023-01-21T02:49:49.952Z,3.53
2023-01-21T02:52:55.437Z,3.55
2023-01-21T02:59:22.316Z,3.40
2023-01-21T03:02:41.811Z,4.03
2023-01-21T03:09:33.260Z,3.35
2023-01-21T03:12:44.135Z,3.60
2023-01-21T03:16:12.094Z,3.50
2023-01-21T03:19:17.633Z,3.58
2023-01-21T03:22:26.498Z,3.83
2023-01-21T03:25:32.019Z,3.72
2023-01-21T03:28:39.387Z,3.77
2023-01-21T03:31:46.141Z,4.47
2023-01-21T03:34:52.009Z,3.88
2023-01-21T03:41:25.963Z,3.40
2023-01-21T03:44:27.274Z,3.57
2023-01-21T03:47:33.984Z,3.50
2023-01-21T03:50:39.705Z,3.88
2023-01-21T03:53:43.968Z,4.03
2023-01-21T03:56:45.296Z,3.75
2023-01-21T03:59:47.903Z,3.70
2023-01-21T04:02:49.222Z,4.13
2023-01-21T04:05:50.939Z,3.83
2023-01-21T04:08:54.154Z,3.70
2023-01-21T04:11:55.479Z,4.00
2023-01-21T04:14:58.662Z,3.53
2023-01-21T04:18:01.220Z,3.97
2023-01-21T04:21:02.517Z,3.50
2023-01-21T04:24:06.936Z,3.83
2023-01-21T04:27:08.247Z,4.03
2023-01-21T04:30:11.739Z,2.90
2023-01-21T04:33:14.474Z,3.90
2023-01-21T04:36:15.792Z,3.83
2023-01-21T04:39:19.077Z,3.40
2023-01-21T04:42:20.337Z,3.97
2023-01-21T04:45:22.079Z,3.37
2023-01-21T04:48:23.375Z,3.33
2023-01-21T04:51:24.657Z,4.03
2023-01-21T04:54:27.993Z,3.27
2023-01-21T04:57:29.595Z,3.17
2023-01-21T05:00:30.905Z,3.50
2023-01-21T05:03:32.189Z,3.45
2023-01-21T05:06:35.874Z,3.83
2023-01-21T05:09:37.963Z,4.07
2023-01-21T05:12:40.531Z,3.92
2023-01-21T05:15:41.825Z,4.45
2023-01-21T05:18:46.788Z,4.43
2023-01-21T05:21:48.216Z,3.97
2023-01-21T05:24:51.468Z,3.80
2023-01-21T05:27:55.006Z,3.83
2023-01-21T05:31:00.076Z,3.90
2023-01-21T05:34:01.820Z,4.22
2023-01-21T05:37:03.217Z,4.47
2023-01-21T05:40:06.639Z,4.00
2023-01-21T05:43:09.189Z,4.85
2023-01-21T05:46:10.694Z,4.50
2023-01-21T05:49:13.249Z,4.13
2023-01-21T05:52:14.580Z,4.00
2023-01-21T05:55:16.767Z,3.83
2023-01-21T06:01:38.719Z,3.60
2023-01-21T06:04:41.229Z,3.70
2023-01-21T06:07:42.576Z,3.83
2023-01-21T06:10:45.891Z,4.30
2023-01-21T06:13:48.472Z,4.35
2023-01-21T06:16:49.802Z,4.68
2023-01-21T06:19:52.334Z,4.43
2023-01-21T06:22:53.616Z,4.33
2023-01-21T06:26:00.693Z,4.33
2023-01-21T06:29:02.523Z,4.13
2023-01-21T06:32:04.460Z,4.32
2023-01-21T06:35:07.503Z,4.80
2023-01-21T06:38:08.822Z,3.87
2023-01-21T06:41:12.015Z,4.83
2023-01-21T06:44:14.564Z,4.80
2023-01-21T06:47:15.857Z,4.60
2023-01-21T06:50:19.355Z,4.88
2023-01-21T06:53:20.751Z,5.13
2023-01-21T06:56:23.940Z,4.77
2023-01-21T06:59:25.368Z,4.72
2023-01-21T07:02:26.842Z,5.25
2023-01-21T07:05:28.174Z,4.80
2023-01-21T07:08:29.491Z,5.57
2023-01-21T07:11:32.994Z,5.53
2023-01-21T07:14:35.611Z,5.25
2023-01-21T07:17:37.804Z,5.70
2023-01-21T07:20:41.018Z,6.28
2023-01-21T07:23:42.560Z,5.43
2023-01-21T07:26:45.772Z,5.17
2023-01-21T07:29:48.764Z,5.18
2023-01-21T07:32:51.340Z,5.57
2023-01-21T07:35:53.918Z,5.05
2023-01-21T07:38:55.576Z,5.67
2023-01-21T07:41:58.815Z,5.40
2023-01-21T07:45:02.120Z,5.90
2023-01-21T07:48:05.179Z,6.40
2023-01-21T07:51:07.878Z,6.13
2023-01-21T07:54:10.120Z,6.90
2023-01-21T07:57:14.227Z,6.13
2023-01-21T08:00:17.212Z,6.60
2023-01-21T08:10:04.776Z,7.70
2023-01-21T08:13:07.184Z,6.20
2023-01-21T08:16:10.881Z,6.50
2023-01-21T08:19:13.954Z,7.65
2023-01-21T08:22:16.732Z,6.88
2023-01-21T08:25:19.535Z,6.97
2023-01-21T08:28:21.668Z,7.80
2023-01-21T08:34:43.953Z,6.50
2023-01-21T08:37:45.326Z,6.70
2023-01-21T08:40:46.587Z,6.97
2023-01-21T08:43:48.564Z,8.17
2023-01-21T08:46:51.155Z,6.95
2023-01-21T08:49:52.471Z,6.57
2023-01-21T08:52:55.271Z,6.30
2023-01-21T08:55:58.580Z,8.10
2023-01-21T08:59:02.141Z,7.37
2023-01-21T09:02:04.756Z,8.27
2023-01-21T09:05:07.145Z,8.50
2023-01-21T09:08:10.077Z,8.85
2023-01-21T09:11:11.559Z,7.10
2023-01-21T09:14:14.782Z,7.60
2023-01-21T09:17:17.332Z,6.50
2023-01-21T09:20:18.642Z,7.38
2023-01-21T09:23:25.862Z,6.78
2023-01-21T09:26:27.794Z,6.53
2023-01-21T09:29:30.984Z,6.73
2023-01-21T09:32:32.891Z,6.97
2023-01-21T09:35:35.452Z,6.87
2023-01-21T09:38:38.106Z,6.95
2023-01-21T09:41:45.204Z,6.75
2023-01-21T09:44:51.032Z,7.07
2023-01-21T09:47:55.581Z,7.27
2023-01-21T09:50:59.989Z,7.40
2023-01-21T09:54:04.978Z,7.63
2023-01-21T09:57:22.380Z,7.20
2023-01-21T10:00:34.846Z,7.32
2023-01-21T10:03:44.877Z,7.50
2023-01-21T10:06:51.044Z,6.60
2023-01-21T10:10:05.049Z,6.60
2023-01-21T10:13:24.318Z,6.40
2023-01-21T10:16:32.916Z,6.97
2023-01-21T10:19:38.850Z,7.23
2023-01-21T10:22:46.683Z,7.17
2023-01-21T10:25:50.674Z,7.35
2023-01-21T10:28:54.545Z,7.53
2023-01-21T10:32:03.538Z,7.40
2023-01-21T10:35:16.749Z,7.13
2023-01-21T10:38:30.981Z,6.53
2023-01-21T10:41:52.328Z,6.93
2023-01-21T10:45:00.560Z,6.88
2023-01-21T10:48:12.115Z,6.50
2023-01-21T10:51:18.750Z,6.60
2023-01-21T10:54:25.304Z,6.43
2023-01-21T10:57:40.953Z,5.80
2023-01-21T11:00:48.386Z,7.40
2023-01-21T11:03:53.867Z,6.50
2023-01-21T11:06:59.953Z,7.53
2023-01-21T11:10:03.026Z,7.30
2023-01-21T11:13:12.751Z,7.65
2023-01-21T11:16:30.025Z,7.32
2023-01-21T11:19:33.206Z,6.65
2023-01-21T11:22:42.846Z,7.47
2023-01-21T11:25:45.441Z,6.87
2023-01-21T11:28:46.703Z,7.32
2023-01-21T11:31:51.884Z,7.13
2023-01-21T11:35:03.372Z,7.47
2023-01-21T11:38:05.376Z,7.10
2023-01-21T11:41:17.676Z,7.13
2023-01-21T11:44:21.882Z,7.85
2023-01-21T11:47:29.049Z,6.70
2023-01-21T11:50:35.223Z,6.53
2023-01-21T11:53:37.546Z,6.80
2023-01-21T11:56:40.048Z,6.83
2023-01-21T11:59:46.689Z,6.13
2023-01-21T12:02:51.622Z,6.43
2023-01-21T12:05:55.157Z,6.53
2023-01-21T12:09:01.677Z,6.30
2023-01-21T12:12:27.887Z,6.70
2023-01-21T12:15:44.469Z,5.63
2023-01-21T12:19:23.467Z,5.88
2023-01-21T12:22:57.392Z,5.40
2023-01-21T12:26:00.810Z,5.57
2023-01-21T12:29:19.584Z,5.40
2023-01-21T12:32:26.231Z,5.60
2023-01-21T12:35:33.253Z,5.63
2023-01-21T12:38:40.773Z,4.72
2023-01-21T12:41:46.904Z,5.33
2023-01-21T12:44:53.037Z,4.90
2023-01-21T12:47:58.717Z,4.68
2023-01-21T12:51:05.670Z,5.30
2023-01-21T12:54:17.579Z,4.90
2023-01-21T12:57:25.363Z,3.80
2023-01-21T13:00:34.121Z,4.33
2023-01-21T13:03:47.727Z,4.43
2023-01-21T13:06:57.638Z,4.30
2023-01-21T13:10:11.171Z,3.95
2023-01-21T13:13:17.764Z,3.97
2023-01-21T13:16:22.571Z,3.97
2023-01-21T13:19:25.103Z,3.78
2023-01-21T13:22:36.248Z,4.07
2023-01-21T13:25:44.343Z,4.05
2023-01-21T13:28:53.149Z,3.97
2023-01-21T13:32:13.124Z,4.10
2023-01-21T13:35:28.711Z,4.43
2023-01-21T13:38:37.292Z,4.03
2023-01-21T13:42:01.174Z,3.85
2023-01-21T13:45:25.480Z,3.90
2023-01-21T13:48:44.858Z,4.07
2023-01-21T13:51:56.340Z,3.50
2023-01-21T13:55:15.138Z,4.45
2023-01-21T13:58:25.063Z,5.22
2023-01-21T14:01:32.397Z,5.10
2023-01-21T14:04:40.678Z,7.87
2023-01-21T14:07:46.880Z,4.07
2023-01-21T14:10:53.640Z,3.80
2023-01-21T14:14:24.021Z,3.30
2023-01-21T14:17:53.767Z,3.40
2023-01-21T14:28:21.537Z,3.20
2023-01-21T14:31:31.362Z,3.15
2023-01-21T14:34:40.263Z,2.78
2023-01-21T14:37:44.954Z,2.80
2023-01-21T14:40:50.128Z,2.60
2023-01-21T14:43:52.398Z,2.72
2023-01-21T14:47:17.699Z,2.58
2023-01-21T14:50:45.674Z,2.20
2023-01-21T14:53:49.303Z,2.40
2023-01-21T14:56:52.835Z,2.10
2023-01-21T15:00:10.201Z,2.20
2023-01-21T15:03:16.869Z,2.47
2023-01-21T15:06:22.201Z,2.10
2023-01-21T15:12:53.684Z,2.17
2023-01-21T15:16:12.311Z,2.40
2023-01-21T15:19:27.305Z,2.17
2023-01-21T15:22:40.242Z,2.20
2023-01-21T15:26:03.319Z,2.38
2023-01-21T15:29:33.092Z,2.20
2023-01-21T15:32:37.858Z,1.98
2023-01-21T15:35:41.979Z,2.10
2023-01-21T15:38:43.376Z,2.17
2023-01-21T15:42:03.973Z,5.20
2023-01-21T15:45:19.808Z,2.70
2023-01-21T15:48:46.404Z,2.30
2023-01-21T15:52:01.210Z,2.25
2023-01-21T15:55:24.848Z,2.00
2023-01-21T15:58:36.319Z,1.80
2023-01-21T16:01:38.700Z,2.60
2023-01-21T16:08:22.765Z,2.22
2023-01-21T16:11:48.710Z,2.50
2023-01-21T16:15:01.616Z,2.28
2023-01-21T16:18:13.388Z,2.40
2023-01-21T16:21:20.803Z,2.67
2023-01-21T16:24:27.004Z,2.22
2023-01-21T16:27:30.413Z,2.75
2023-01-21T16:30:31.877Z,2.10
2023-01-21T16:33:34.456Z,2.17
2023-01-21T16:36:37.977Z,2.20
2023-01-21T16:39:41.763Z,2.22
2023-01-21T16:42:44.002Z,2.30
2023-01-21T16:45:51.855Z,2.20
2023-01-21T16:48:56.536Z,2.50
2023-01-21T16:52:01.125Z,2.40
2023-01-21T16:55:18.593Z,2.78
2023-01-21T16:58:25.518Z,2.72
2023-01-21T17:01:27.895Z,2.67
2023-01-21T17:04:30.774Z,2.90
2023-01-21T17:07:37.654Z,3.07
2023-01-21T17:10:52.340Z,2.70
2023-01-21T17:13:53.912Z,3.08
2023-01-21T17:16:58.319Z,2.72
2023-01-21T17:20:01.446Z,2.57
2023-01-21T17:23:06.611Z,2.70
2023-01-21T17:26:18.151Z,3.00
2023-01-21T17:29:23.317Z,2.83
2023-01-21T17:32:26.245Z,2.90
2023-01-21T17:35:29.651Z,2.90
2023-01-21T17:38:30.969Z,2.90
2023-01-21T17:41:38.122Z,2.90
2023-01-21T17:44:39.497Z,2.95
2023-01-21T17:48:03.212Z,2.88
2023-01-21T17:54:29.042Z,3.17
2023-01-21T17:57:33.877Z,3.15
2023-01-21T18:00:40.226Z,5.60
2023-01-21T18:03:42.114Z,3.33
2023-01-21T18:06:45.649Z,3.03
2023-01-21T18:09:46.965Z,3.07
2023-01-21T18:16:09.143Z,3.00
2023-01-21T18:19:27.266Z,2.70
2023-01-21T18:22:32.286Z,2.93
2023-01-21T18:25:33.635Z,2.77
2023-01-21T18:28:36.885Z,3.47
2023-01-21T18:31:40.784Z,3.17
2023-01-21T18:34:42.286Z,3.17
2023-01-21T18:37:45.275Z,3.37
2023-01-21T18:40:46.592Z,2.60
2023-01-21T18:43:49.805Z,3.13
2023-01-21T18:46:51.201Z,2.72
2023-01-21T18:49:53.892Z,2.88
2023-01-21T18:52:55.468Z,3.25
2023-01-21T18:55:58.285Z,3.00
2023-01-21T18:59:01.824Z,2.95
2023-01-21T19:02:03.242Z,3.03
2023-01-21T19:05:06.359Z,3.10
2023-01-21T19:08:13.067Z,2.58
2023-01-21T19:11:14.506Z,2.77
2023-01-21T19:14:18.190Z,2.93
2023-01-21T19:17:25.009Z,2.70
2023-01-21T19:20:28.399Z,2.97
2023-01-21T19:23:29.703Z,2.75
2023-01-21T19:26:32.343Z,2.77
2023-01-21T19:29:38.290Z,3.60
2023-01-21T19:32:39.650Z,3.45
2023-01-21T19:35:45.098Z,3.53
2023-01-21T19:38:52.728Z,2.50
2023-01-21T19:42:07.545Z,2.67
2023-01-21T19:45:11.581Z,2.83
2023-01-21T19:48:17.302Z,2.20
2023-01-21T19:51:18.734Z,2.63
2023-01-21T19:54:21.442Z,3.00
2023-01-21T19:57:24.035Z,3.50
2023-01-21T20:00:27.603Z,2.47
2023-01-21T20:06:51.346Z,2.72
2023-01-21T20:09:52.633Z,2.92
2023-01-21T20:12:54.162Z,2.53
2023-01-21T20:16:01.828Z,2.30
2023-01-21T20:19:03.427Z,2.40
2023-01-21T20:22:04.757Z,2.70
2023-01-21T20:25:06.952Z,2.22
2023-01-21T20:28:16.432Z,2.90
2023-01-21T20:31:18.938Z,2.43
2023-01-21T20:34:21.619Z,2.50
2023-01-21T20:37:23.346Z,3.08
2023-01-21T20:40:27.910Z,3.25
2023-01-21T20:43:29.345Z,2.80
2023-01-21T20:46:32.719Z,2.60
2023-01-21T20:49:34.201Z,2.70
2023-01-21T20:52:36.726Z,2.90
2023-01-21T20:55:39.162Z,3.00
2023-01-21T20:58:45.335Z,2.60
2023-01-21T21:01:47.501Z,2.60
2023-01-21T21:08:13.786Z,3.40
2023-01-21T21:14:38.047Z,3.67
2023-01-21T21:17:41.223Z,3.33
2023-01-21T21:20:43.827Z,2.78
2023-01-21T21:23:45.834Z,3.05
2023-01-21T21:26:48.376Z,2.90
2023-01-21T21:29:55.401Z,2.63
2023-01-21T21:33:00.195Z,2.90
2023-01-21T21:36:02.724Z,2.70
2023-01-21T21:39:05.283Z,2.80
2023-01-21T21:42:26.946Z,2.90
2023-01-21T21:45:29.485Z,2.53
2023-01-21T21:48:37.490Z,2.30
2023-01-21T21:51:40.211Z,3.10
2023-01-21T21:54:42.081Z,2.78
2023-01-21T21:57:44.620Z,2.90
2023-01-21T22:00:47.531Z,3.03
2023-01-21T22:03:49.609Z,2.80
2023-01-21T22:06:52.199Z,3.03
2023-01-21T22:09:54.736Z,3.10
2023-01-21T22:12:56.021Z,2.83
2023-01-21T22:16:00.691Z,3.30
2023-01-21T22:19:02.760Z,3.00
2023-01-21T22:22:05.374Z,2.67
2023-01-21T22:25:09.961Z,2.72
2023-01-21T22:28:12.495Z,3.05
2023-01-21T22:31:15.690Z,2.80
2023-01-21T22:34:18.984Z,3.23
2023-01-21T22:37:21.568Z,2.80
2023-01-21T22:40:22.894Z,2.88
2023-01-21T22:43:25.521Z,3.10
2023-01-21T22:46:30.440Z,3.00
2023-01-21T22:49:32.425Z,2.87
2023-01-21T22:52:34.983Z,2.80
2023-01-21T22:55:38.642Z,3.47
2023-01-21T22:58:40.032Z,2.50
2023-01-21T23:01:43.038Z,2.80
2023-01-21T23:04:45.452Z,3.00
2023-01-21T23:07:48.021Z,3.10
2023-01-21T23:10:49.289Z,3.33
2023-01-21T23:13:53.642Z,2.85
2023-01-21T23:16:56.239Z,3.17
2023-01-21T23:19:58.177Z,3.00
2023-01-21T23:23:00.738Z,2.83
2023-01-21T23:26:03.559Z,2.95
2023-01-21T23:29:04.890Z,3.00
2023-01-21T23:32:07.541Z,2.83
2023-01-21T23:35:09.683Z,2.77
2023-01-21T23:38:12.284Z,2.85
2023-01-21T23:41:16.064Z,2.40
2023-01-21T23:44:18.601Z,2.90
2023-01-21T23:47:20.050Z,2.80
2023-01-21T23:50:23.384Z,2.80
2023-01-21T23:53:25.919Z,2.70
2023-01-21T23:56:27.227Z,2.88
2023-01-21T23:59:29.783Z,2.60
